Time;durP1;ratioP1;P1;durP2;ratioP2;P2;SDS_P1;SDS_P2;PMS_P1;PMS_P2;Temp;Humidity;BMP_temperature;BMP_pressure;BME280_temperature;BME280_humidity;BME280_pressure;Samples;Min_cycle;Max_cycle;Signal;HPM_P1;HPM_P2
2022/01/31 00:02:31;;;;;;;58.50;21.77;;;7.30;59.00;;;;;;6244176;28;20041;-70
2022/01/31 00:05:32;;;;;;;73.82;32.83;;;7.30;59.00;;;;;;6252550;28;20095;-69
2022/01/31 00:08:32;;;;;;;86.28;33.63;;;7.30;59.00;;;;;;6275613;28;20043;-71
2022/01/31 00:11:41;;;;;;;82.15;35.42;;;7.30;58.90;;;;;;6258925;28;20021;-71
2022/01/31 00:14:45;;;;;;;102.32;37.70;;;7.30;58.90;;;;;;6277579;28;20032;-71
2022/01/31 00:17:46;;;;;;;80.78;28.45;;;7.40;58.90;;;;;;6275513;28;20170;-71
2022/01/31 00:20:47;;;;;;;74.93;29.58;;;7.40;58.90;;;;;;6274494;28;20037;-70
2022/01/31 00:23:47;;;;;;;59.13;18.95;;;7.50;58.90;;;;;;6265876;28;20029;-70
2022/01/31 00:26:48;;;;;;;52.70;19.27;;;7.50;58.80;;;;;;6270422;28;20025;-70
2022/01/31 00:29:49;;;;;;;56.40;18.23;;;7.60;58.70;;;;;;6274831;28;20021;-70
2022/01/31 00:32:50;;;;;;;51.05;17.77;;;7.60;58.60;;;;;;6274798;28;20529;-71
2022/01/31 00:35:51;;;;;;;49.67;17.20;;;7.60;58.50;;;;;;6270715;28;20033;-71
2022/01/31 00:38:52;;;;;;;50.03;17.83;;;7.60;58.50;;;;;;6258573;28;20036;-70
2022/01/31 00:41:53;;;;;;;41.50;15.60;;;7.70;58.60;;;;;;6277038;28;20098;-70
2022/01/31 00:44:57;;;;;;;49.70;16.42;;;7.60;58.50;;;;;;6252401;28;20372;-71
2022/01/31 00:48:02;;;;;;;42.72;14.88;;;7.60;58.60;;;;;;6248826;28;20086;-70
2022/01/31 00:51:06;;;;;;;50.22;15.45;;;7.60;58.60;;;;;;6257129;28;20048;-70
2022/01/31 00:54:06;;;;;;;50.10;17.70;;;7.60;58.70;;;;;;6236997;28;20116;-71
2022/01/31 00:57:07;;;;;;;51.78;19.33;;;7.70;58.70;;;;;;6270989;28;20027;-70
2022/01/31 01:00:13;;;;;;;49.95;19.17;;;7.70;58.60;;;;;;6271687;28;20358;-71
2022/01/31 01:03:14;;;;;;;56.13;23.20;;;7.70;58.60;;;;;;6245926;28;20485;-71
2022/01/31 01:06:15;;;;;;;63.97;22.55;;;7.80;58.50;;;;;;6271625;28;20035;-72
2022/01/31 01:09:16;;;;;;;59.13;22.95;;;7.80;58.40;;;;;;6276024;28;20111;-71
2022/01/31 01:12:18;;;;;;;61.90;25.50;;;7.80;58.40;;;;;;6275002;28;20032;-70
2022/01/31 01:15:19;;;;;;;63.47;22.15;;;7.80;58.40;;;;;;6271304;28;20016;-72
2022/01/31 01:18:20;;;;;;;53.65;21.05;;;7.80;58.40;;;;;;6275495;28;20021;-72
2022/01/31 01:21:21;;;;;;;57.47;21.88;;;7.80;58.40;;;;;;6273140;28;20025;-70
2022/01/31 01:24:23;;;;;;;77.82;25.38;;;7.80;58.40;;;;;;6268286;28;20075;-71
2022/01/31 01:27:24;;;;;;;66.22;23.17;;;7.80;58.50;;;;;;6269187;28;20454;-72
2022/01/31 01:30:26;;;;;;;59.05;23.23;;;7.80;58.50;;;;;;6276765;28;20115;-71
2022/01/31 01:33:28;;;;;;;62.92;24.50;;;7.80;59.00;;;;;;6272140;28;20571;-70
2022/01/31 01:36:31;;;;;;;81.15;30.48;;;7.90;58.60;;;;;;6264960;28;20509;-70
2022/01/31 01:39:32;;;;;;;94.63;36.63;;;7.90;58.50;;;;;;6281752;28;20458;-70
2022/01/31 01:42:34;;;;;;;81.30;35.35;;;7.90;58.40;;;;;;6259454;28;20420;-70
2022/01/31 01:45:36;;;;;;;74.97;34.00;;;7.90;58.30;;;;;;6277086;28;20040;-70
2022/01/31 01:48:38;;;;;;;98.65;39.10;;;7.90;58.20;;;;;;6272370;28;20025;-70
2022/01/31 01:51:39;;;;;;;91.53;39.58;;;7.90;58.20;;;;;;6267194;28;20642;-70
2022/01/31 01:54:41;;;;;;;86.35;37.47;;;7.90;58.20;;;;;;6278183;28;20077;-70
2022/01/31 01:57:42;;;;;;;89.72;36.38;;;7.90;58.20;;;;;;6277543;28;20032;-71
2022/01/31 02:00:52;;;;;;;85.22;36.97;;;7.90;58.20;;;;;;6252270;28;20036;-70
2022/01/31 02:04:03;;;;;;;84.78;37.70;;;7.80;58.10;;;;;;6276151;28;20102;-70
2022/01/31 02:07:12;;;;;;;89.28;39.53;;;7.80;58.20;;;;;;6251277;28;20382;-71
2022/01/31 02:10:16;;;;;;;75.32;35.42;;;7.80;58.20;;;;;;6272027;28;20670;-70
2022/01/31 02:13:36;;;;;;;56.42;25.40;;;7.70;58.80;;;;;;6262027;28;20485;-70
2022/01/31 02:16:40;;;;;;;73.05;27.88;;;7.60;58.20;;;;;;6268640;28;20052;-70
2022/01/31 02:19:46;;;;;;;63.90;21.63;;;7.50;58.40;;;;;;6270555;28;20045;-70
2022/01/31 02:23:10;;;;;;;47.15;18.48;;;7.50;58.60;;;;;;6269450;28;20585;-70
2022/01/31 02:26:13;;;;;;;41.65;15.27;;;7.50;58.70;;;;;;6255475;28;20033;-71
2022/01/31 02:29:27;;;;;;;42.20;15.55;;;7.40;58.80;;;;;;6254176;28;20029;-69
2022/01/31 02:32:28;;;;;;;47.42;15.95;;;7.40;58.90;;;;;;6270069;28;20049;-69
2022/01/31 02:35:35;;;;;;;39.47;13.27;;;7.40;59.00;;;;;;6271912;28;20120;-70
2022/01/31 02:38:36;;;;;;;39.15;14.50;;;7.40;59.00;;;;;;6275599;28;20041;-71
2022/01/31 02:41:43;;;;;;;41.80;14.48;;;7.30;59.50;;;;;;6268735;28;20660;-70
2022/01/31 02:44:45;;;;;;;43.15;15.35;;;7.30;59.10;;;;;;6268650;28;20046;-69
2022/01/31 02:47:55;;;;;;;39.38;13.77;;;7.20;59.20;;;;;;6255290;28;20033;-71
2022/01/31 02:50:57;;;;;;;40.85;13.70;;;7.20;59.30;;;;;;6270589;28;20347;-69
2022/01/31 02:53:58;;;;;;;38.58;14.30;;;7.10;59.40;;;;;;6266750;28;20040;-70
2022/01/31 02:56:59;;;;;;;38.60;14.93;;;7.10;59.50;;;;;;6254165;28;20037;-69
2022/01/31 03:00:01;;;;;;;40.03;13.98;;;7.20;59.60;;;;;;6250942;28;20044;-69
2022/01/31 03:03:13;;;;;;;37.30;14.02;;;7.20;59.60;;;;;;6274031;28;20115;-70
2022/01/31 03:06:13;;;;;;;39.63;13.25;;;7.10;59.40;;;;;;6260746;28;20049;-71
2022/01/31 03:09:15;;;;;;;47.63;15.93;;;7.10;59.50;;;;;;6272391;28;20446;-70
2022/01/31 03:12:18;;;;;;;48.45;15.32;;;7.10;59.50;;;;;;6269028;28;20024;-70
2022/01/31 03:15:23;;;;;;;46.47;15.88;;;7.10;59.70;;;;;;6255589;28;20037;-70
2022/01/31 03:18:43;;;;;;;45.28;13.25;;;7.10;59.70;;;;;;6267071;28;20041;-70
2022/01/31 03:21:44;;;;;;;40.13;15.00;;;7.10;59.80;;;;;;6277387;28;20524;-70
2022/01/31 03:24:45;;;;;;;36.85;13.38;;;7.10;59.90;;;;;;6265407;28;20036;-70
2022/01/31 03:27:47;;;;;;;41.03;15.55;;;7.10;59.90;;;;;;6257125;28;20455;-70
2022/01/31 03:30:50;;;;;;;45.58;13.60;;;7.10;59.90;;;;;;6274222;28;20390;-70
2022/01/31 03:33:53;;;;;;;45.53;14.82;;;7.10;59.90;;;;;;6256355;28;20047;-69
2022/01/31 03:36:54;;;;;;;43.78;14.95;;;7.10;59.80;;;;;;6284102;28;20047;-70
2022/01/31 03:39:58;;;;;;;44.58;14.82;;;7.10;59.80;;;;;;6263171;28;20063;-70
2022/01/31 03:42:59;;;;;;;37.05;13.63;;;7.20;59.70;;;;;;6271537;28;20033;-70
2022/01/31 03:46:02;;;;;;;34.70;13.57;;;7.20;59.80;;;;;;6271762;28;20083;-70
2022/01/31 03:49:03;;;;;;;42.15;14.82;;;7.20;59.80;;;;;;6276145;28;20021;-70
2022/01/31 03:52:11;;;;;;;44.85;14.95;;;7.20;60.60;;;;;;6277283;28;20028;-70
2022/01/31 03:55:18;;;;;;;38.17;13.45;;;7.20;59.90;;;;;;6272854;28;20037;-71
2022/01/31 03:58:22;;;;;;;36.08;13.05;;;7.20;59.90;;;;;;6270296;28;20029;-70
2022/01/31 04:01:34;;;;;;;38.05;14.77;;;7.20;59.90;;;;;;6270746;28;20028;-70
2022/01/31 04:04:35;;;;;;;36.47;14.10;;;7.20;59.90;;;;;;6280262;28;20055;-71
2022/01/31 04:07:36;;;;;;;42.05;15.48;;;7.30;60.00;;;;;;6280301;28;20133;-71
2022/01/31 04:10:38;;;;;;;35.20;13.65;;;7.30;59.90;;;;;;6270799;28;20037;-70
2022/01/31 04:13:39;;;;;;;41.40;14.60;;;7.30;59.90;;;;;;6273303;28;20613;-72
2022/01/31 04:16:43;;;;;;;36.75;13.77;;;7.30;60.00;;;;;;6272046;28;20043;-71
2022/01/31 04:19:43;;;;;;;41.72;14.40;;;7.40;60.00;;;;;;6272161;28;20039;-72
2022/01/31 04:22:56;;;;;;;42.05;14.68;;;7.40;60.00;;;;;;6271654;28;20117;-70
2022/01/31 04:26:07;;;;;;;44.13;14.68;;;7.40;59.80;;;;;;6274289;28;20541;-70
2022/01/31 04:29:14;;;;;;;37.92;15.13;;;7.40;59.70;;;;;;6279866;28;20459;-71
2022/01/31 04:32:15;;;;;;;46.10;16.55;;;7.30;59.60;;;;;;6270096;28;20146;-70
2022/01/31 04:35:15;;;;;;;50.72;15.15;;;7.20;59.70;;;;;;6274620;28;20037;-71
2022/01/31 04:38:17;;;;;;;40.67;14.55;;;7.20;59.80;;;;;;6271470;28;20534;-70
2022/01/31 04:41:18;;;;;;;38.00;13.70;;;7.20;59.90;;;;;;6274851;28;20055;-70
2022/01/31 04:44:19;;;;;;;36.15;12.82;;;7.20;59.90;;;;;;6271189;28;20033;-70
2022/01/31 04:47:19;;;;;;;43.05;13.52;;;7.10;60.90;;;;;;6273005;28;20121;-70
2022/01/31 04:50:20;;;;;;;37.38;13.80;;;7.10;61.20;;;;;;6271045;28;20036;-70
2022/01/31 04:53:22;;;;;;;32.33;12.52;;;7.10;60.60;;;;;;6270786;28;20044;-69
2022/01/31 04:56:22;;;;;;;40.17;14.43;;;7.10;60.70;;;;;;6279603;28;20094;-71
2022/01/31 04:59:23;;;;;;;31.90;12.63;;;7.10;60.80;;;;;;6279758;28;20036;-70
2022/01/31 05:02:25;;;;;;;35.95;13.65;;;7.10;60.90;;;;;;6285654;28;20037;-72
2022/01/31 05:05:26;;;;;;;42.70;15.50;;;7.20;61.00;;;;;;6270753;28;20052;-71
2022/01/31 05:08:29;;;;;;;40.38;12.75;;;7.30;61.00;;;;;;6265588;28;20138;-70
2022/01/31 05:11:30;;;;;;;46.08;14.80;;;7.30;60.80;;;;;;6274093;28;20048;-70
2022/01/31 05:14:31;;;;;;;36.15;15.25;;;7.30;60.50;;;;;;6271371;28;20036;-70
2022/01/31 05:17:31;;;;;;;38.72;14.43;;;7.30;60.50;;;;;;6269728;28;20469;-70
2022/01/31 05:20:32;;;;;;;37.65;15.10;;;7.20;60.20;;;;;;6269592;28;20063;-71
2022/01/31 05:23:34;;;;;;;39.03;13.18;;;7.20;60.40;;;;;;6254048;28;20083;-72
2022/01/31 05:26:35;;;;;;;38.40;13.57;;;7.20;60.40;;;;;;6269658;28;20460;-70
2022/01/31 05:29:36;;;;;;;32.88;12.60;;;7.20;60.50;;;;;;6264389;28;20094;-72
2022/01/31 05:32:37;;;;;;;28.77;11.75;;;7.10;60.60;;;;;;6270969;28;20043;-69
2022/01/31 05:35:38;;;;;;;38.15;13.45;;;7.20;60.60;;;;;;6269760;28;20326;-70
2022/01/31 05:38:39;;;;;;;31.13;12.00;;;7.20;60.40;;;;;;6269380;28;20107;-71
2022/01/31 05:41:41;;;;;;;34.30;12.07;;;7.10;60.50;;;;;;6271768;28;20040;-70
2022/01/31 05:44:43;;;;;;;39.08;15.10;;;7.10;60.50;;;;;;6250798;28;20029;-70
2022/01/31 05:47:44;;;;;;;36.17;13.85;;;7.10;60.60;;;;;;6270659;28;20040;-69
2022/01/31 05:50:45;;;;;;;33.17;12.40;;;7.10;60.70;;;;;;6274098;28;20120;-70
2022/01/31 05:53:47;;;;;;;41.50;14.18;;;7.20;60.70;;;;;;6268869;28;20041;-71
2022/01/31 05:56:49;;;;;;;35.72;13.35;;;7.20;60.70;;;;;;6258096;28;20040;-70
2022/01/31 05:59:50;;;;;;;34.92;13.02;;;7.30;60.50;;;;;;6257700;28;20470;-73
2022/01/31 06:02:58;;;;;;;42.70;13.82;;;7.30;60.40;;;;;;6267756;28;20077;-73
2022/01/31 06:06:00;;;;;;;32.67;13.00;;;7.40;60.40;;;;;;6269975;28;20055;-70
2022/01/31 06:09:01;;;;;;;38.42;13.63;;;7.50;60.20;;;;;;6271419;28;20540;-70
2022/01/31 06:12:03;;;;;;;36.47;12.23;;;7.50;60.00;;;;;;6274447;28;20113;-70
2022/01/31 06:15:04;;;;;;;41.25;13.70;;;7.60;60.00;;;;;;6269346;28;20032;-70
2022/01/31 06:18:05;;;;;;;43.17;14.15;;;7.60;59.90;;;;;;6255841;28;20126;-70
2022/01/31 06:21:06;;;;;;;35.90;12.60;;;7.70;59.80;;;;;;6269436;28;20428;-70
2022/01/31 06:24:09;;;;;;;42.67;13.20;;;7.70;59.80;;;;;;6252953;28;20522;-74
2022/01/31 06:27:11;;;;;;;38.03;13.77;;;7.70;59.80;;;;;;6239142;28;20021;-75
2022/01/31 06:30:12;;;;;;;43.65;14.15;;;7.70;59.80;;;;;;6256685;28;20614;-74
2022/01/31 06:33:16;;;;;;;44.45;14.55;;;7.80;59.80;;;;;;6253279;28;20067;-73
2022/01/31 06:36:17;;;;;;;36.25;13.45;;;7.80;59.80;;;;;;6237816;28;20082;-74
2022/01/31 06:39:17;;;;;;;34.22;14.52;;;7.80;59.80;;;;;;6254080;28;20028;-73
2022/01/31 06:42:18;;;;;;;42.15;13.98;;;7.80;59.80;;;;;;6244483;28;20059;-73
2022/01/31 06:45:19;;;;;;;41.38;14.15;;;7.90;59.80;;;;;;6253704;28;20078;-74
2022/01/31 06:48:20;;;;;;;35.50;13.48;;;7.90;59.80;;;;;;6270191;28;20112;-77
2022/01/31 06:51:21;;;;;;;41.30;14.30;;;7.90;59.70;;;;;;6245288;28;20036;-73
2022/01/31 06:54:22;;;;;;;33.97;12.38;;;7.90;59.60;;;;;;6253214;28;20037;-70
2022/01/31 06:57:25;;;;;;;33.95;13.10;;;8.00;59.60;;;;;;6269325;28;20128;-72
2022/01/31 07:00:26;;;;;;;44.88;14.27;;;8.00;59.40;;;;;;6234561;28;20037;-69
2022/01/31 07:03:27;;;;;;;39.75;14.40;;;7.90;59.30;;;;;;6271538;28;20409;-69
2022/01/31 07:06:28;;;;;;;37.53;14.25;;;7.90;59.30;;;;;;6276311;28;20025;-70
2022/01/31 07:09:29;;;;;;;37.13;12.70;;;7.80;59.40;;;;;;6254435;28;20029;-71
2022/01/31 07:12:35;;;;;;;41.45;13.77;;;7.80;59.60;;;;;;6272714;28;20075;-73
2022/01/31 07:15:36;;;;;;;44.92;14.77;;;7.80;59.60;;;;;;6271760;28;20029;-69
2022/01/31 07:18:38;;;;;;;43.17;13.73;;;7.80;59.50;;;;;;6271483;28;20519;-70
2022/01/31 07:21:48;;;;;;;32.97;12.77;;;7.80;59.50;;;;;;6260522;28;20033;-70
2022/01/31 07:25:01;;;;;;;45.75;15.75;;;7.80;59.50;;;;;;6276389;28;20052;-69
2022/01/31 07:28:16;;;;;;;39.15;12.98;;;7.90;59.60;;;;;;6273623;28;20033;-70
2022/01/31 07:31:17;;;;;;;43.67;15.23;;;8.00;59.60;;;;;;6249501;28;20509;-70
2022/01/31 07:34:18;;;;;;;38.35;13.30;;;8.10;59.50;;;;;;6261880;28;20036;-71
2022/01/31 07:37:20;;;;;;;36.90;11.73;;;8.10;59.30;;;;;;6239177;28;20117;-70
2022/01/31 07:40:21;;;;;;;40.47;14.25;;;8.10;59.20;;;;;;6261740;28;20089;-70
2022/01/31 07:43:21;;;;;;;37.08;13.18;;;8.20;59.20;;;;;;6267304;28;20036;-70
2022/01/31 07:46:22;;;;;;;39.55;13.52;;;8.20;59.20;;;;;;6258388;28;20119;-70
2022/01/31 07:49:23;;;;;;;37.33;12.07;;;8.30;59.10;;;;;;6241014;28;20370;-70
2022/01/31 07:52:24;;;;;;;36.17;12.35;;;8.30;59.00;;;;;;6241937;28;20091;-70
2022/01/31 07:55:25;;;;;;;37.95;13.02;;;8.40;58.90;;;;;;6265684;28;20029;-70
2022/01/31 07:58:26;;;;;;;42.53;14.00;;;8.40;59.50;;;;;;6282651;28;20063;-70
2022/01/31 08:01:27;;;;;;;42.80;13.68;;;8.50;58.90;;;;;;6269171;28;20111;-70
2022/01/31 08:04:28;;;;;;;54.17;15.00;;;8.50;58.90;;;;;;6270202;28;20076;-70
2022/01/31 08:07:29;;;;;;;47.17;16.10;;;8.50;58.90;;;;;;6274454;28;20412;-69
2022/01/31 08:10:31;;;;;;;40.97;13.68;;;8.60;58.80;;;;;;6285309;28;20469;-70
2022/01/31 08:13:33;;;;;;;33.53;14.43;;;8.60;58.80;;;;;;6274041;28;20021;-70
2022/01/31 08:16:35;;;;;;;40.17;13.70;;;8.70;58.80;;;;;;6262715;28;20029;-70
2022/01/31 08:19:36;;;;;;;32.97;11.88;;;8.80;58.70;;;;;;6276793;28;20331;-69
2022/01/31 08:22:38;;;;;;;34.28;13.10;;;8.80;58.50;;;;;;6270939;28;20029;-69
2022/01/31 08:25:39;;;;;;;34.97;13.13;;;8.80;58.40;;;;;;6273769;28;20400;-70
2022/01/31 08:28:49;;;;;;;30.98;11.93;;;8.90;58.40;;;;;;6275834;28;20044;-70
2022/01/31 08:31:53;;;;;;;37.13;13.35;;;9.00;58.30;;;;;;6270130;28;20082;-70
2022/01/31 08:38:13;;;;;;;43.13;13.77;;;9.00;58.00;;;;;;6270022;28;20029;-70
2022/01/31 08:41:14;;;;;;;40.10;12.38;;;9.10;57.80;;;;;;6278498;28;20250;-70
2022/01/31 08:44:17;;;;;;;34.65;13.93;;;9.20;57.80;;;;;;6269072;28;20111;-70
2022/01/31 08:47:18;;;;;;;33.45;12.32;;;9.20;57.80;;;;;;6278641;28;20029;-70
2022/01/31 08:50:19;;;;;;;35.67;12.48;;;9.30;57.70;;;;;;6271813;28;20048;-70
2022/01/31 08:53:20;;;;;;;45.38;13.35;;;9.40;57.60;;;;;;6259364;28;20051;-70
2022/01/31 08:56:21;;;;;;;35.88;12.68;;;9.40;57.40;;;;;;6269982;28;20025;-71
2022/01/31 08:59:25;;;;;;;54.97;13.25;;;9.40;57.20;;;;;;6275630;28;20488;-69
2022/01/31 09:02:37;;;;;;;33.95;13.32;;;9.40;57.10;;;;;;6277423;28;20495;-69
2022/01/31 09:05:39;;;;;;;40.63;13.98;;;9.40;57.00;;;;;;6253494;28;20032;-70
2022/01/31 09:08:40;;;;;;;36.13;12.68;;;9.40;56.90;;;;;;6256458;28;20052;-70
2022/01/31 09:11:41;;;;;;;37.78;12.25;;;9.40;56.90;;;;;;6254651;28;20124;-71
2022/01/31 09:14:42;;;;;;;37.20;13.48;;;9.50;57.00;;;;;;6273912;28;20025;-70
2022/01/31 09:17:43;;;;;;;40.45;12.63;;;9.50;56.80;;;;;;6251516;28;20043;-70
2022/01/31 09:20:44;;;;;;;40.30;12.70;;;9.60;56.80;;;;;;6239671;28;20040;-70
2022/01/31 09:23:51;;;;;;;34.15;12.52;;;9.70;56.90;;;;;;6273211;28;20035;-70
2022/01/31 09:26:52;;;;;;;44.23;16.10;;;9.80;56.60;;;;;;6252109;28;20024;-71
2022/01/31 09:29:53;;;;;;;37.60;12.43;;;9.90;56.50;;;;;;6237259;28;20504;-70
2022/01/31 09:32:56;;;;;;;31.17;13.68;;;10.00;56.50;;;;;;6261775;28;20056;-70
2022/01/31 09:35:57;;;;;;;32.35;13.68;;;10.10;56.40;;;;;;6253010;28;20036;-70
2022/01/31 09:38:58;;;;;;;38.67;14.40;;;10.30;56.30;;;;;;6253373;28;20481;-70
2022/01/31 09:41:59;;;;;;;35.63;12.95;;;10.40;56.00;;;;;;6269040;28;20059;-70
2022/01/31 09:51:19;;;;;;;37.05;14.25;;;10.70;55.60;;;;;;6250879;28;20029;-71
2022/01/31 09:54:20;;;;;;;39.85;13.00;;;10.70;55.40;;;;;;6234711;28;20021;-70
2022/01/31 09:57:21;;;;;;;35.60;13.77;;;10.80;55.40;;;;;;6250061;28;20028;-71
2022/01/31 10:00:32;;;;;;;33.60;12.93;;;10.90;55.30;;;;;;6268535;28;20028;-70
2022/01/31 10:03:42;;;;;;;46.58;14.38;;;10.90;55.20;;;;;;6268067;28;20105;-71
2022/01/31 10:06:46;;;;;;;34.15;13.00;;;10.90;55.10;;;;;;6259910;28;20094;-70
2022/01/31 10:09:48;;;;;;;33.70;12.70;;;10.90;55.00;;;;;;6263643;28;20036;-71
2022/01/31 10:19:21;;;;;;;40.30;13.90;;;11.20;54.70;;;;;;6264940;28;20051;-70
2022/01/31 10:22:24;;;;;;;36.97;14.00;;;11.30;54.60;;;;;;6275766;28;20029;-70
2022/01/31 10:25:25;;;;;;;33.70;12.85;;;11.40;54.40;;;;;;6251964;28;20032;-71
2022/01/31 10:28:27;;;;;;;31.17;13.02;;;11.50;54.00;;;;;;6235633;28;20599;-70
2022/01/31 10:31:27;;;;;;;37.17;13.25;;;11.50;54.00;;;;;;6267773;28;20035;-70
2022/01/31 10:34:32;;;;;;;33.42;13.95;;;11.60;53.90;;;;;;6249480;28;20044;-71
2022/01/31 10:37:34;;;;;;;34.00;14.18;;;11.70;54.30;;;;;;6256908;28;20048;-71
2022/01/31 10:44:54;;;;;;;49.15;18.90;;;11.80;53.40;;;;;;6272016;28;20033;-70
2022/01/31 10:57:29;;;;;;;33.35;13.90;;;11.80;53.00;;;;;;6278678;28;20029;-70
2022/01/31 11:00:38;;;;;;;36.58;13.73;;;11.80;53.10;;;;;;6254070;28;20032;-71
2022/01/31 11:03:40;;;;;;;35.30;13.52;;;11.90;53.10;;;;;;6276734;28;20497;-71
2022/01/31 11:06:43;;;;;;;38.90;14.73;;;11.90;52.80;;;;;;6274422;28;20536;-70
2022/01/31 11:09:46;;;;;;;33.70;13.07;;;12.10;52.80;;;;;;6260146;28;20374;-72
2022/01/31 11:12:46;;;;;;;30.33;12.40;;;12.20;52.60;;;;;;6271821;28;20029;-70
2022/01/31 11:15:48;;;;;;;28.75;12.43;;;12.30;52.50;;;;;;6279756;28;20032;-71
2022/01/31 11:18:50;;;;;;;26.52;10.07;;;12.30;52.40;;;;;;6258902;28;20112;-70
2022/01/31 11:21:54;;;;;;;28.40;10.73;;;12.30;52.50;;;;;;6278915;28;20032;-70
2022/01/31 11:25:01;;;;;;;32.78;11.73;;;12.40;52.50;;;;;;6254517;28;20056;-70
2022/01/31 11:28:04;;;;;;;26.85;11.30;;;12.30;52.50;;;;;;6278312;28;20020;-70
2022/01/31 11:31:05;;;;;;;35.47;13.25;;;12.30;52.70;;;;;;6257602;28;20370;-70
2022/01/31 11:34:08;;;;;;;34.88;12.63;;;12.20;52.80;;;;;;6256190;28;20484;-70
2022/01/31 11:37:11;;;;;;;8.98;3.40;;;12.20;53.00;;;;;;6280758;28;20029;-70
2022/01/31 11:40:14;;;;;;;3.47;2.00;;;12.20;53.30;;;;;;6266102;28;20032;-72
2022/01/31 11:43:16;;;;;;;3.95;1.40;;;12.10;53.80;;;;;;6271275;28;20032;-71
2022/01/31 11:46:23;;;;;;;3.40;1.67;;;12.00;54.40;;;;;;6255756;28;20103;-71
2022/01/31 11:49:25;;;;;;;4.30;1.60;;;11.90;54.90;;;;;;6252851;28;20044;-71
2022/01/31 11:52:30;;;;;;;3.97;1.63;;;11.80;55.30;;;;;;6271868;28;20082;-71
2022/01/31 11:55:35;;;;;;;1.85;1.05;;;11.80;55.50;;;;;;6255374;28;20060;-69
2022/01/31 11:58:50;;;;;;;9.13;2.80;;;11.90;55.50;;;;;;6258359;28;20033;-71
2022/01/31 12:01:52;;;;;;;13.13;5.80;;;12.00;55.50;;;;;;6264955;28;20051;-70
2022/01/31 12:04:54;;;;;;;24.13;10.02;;;12.10;55.50;;;;;;6259680;28;20467;-71
2022/01/31 12:08:04;;;;;;;41.45;10.68;;;12.20;55.20;;;;;;6277110;28;20647;-71
2022/01/31 12:11:16;;;;;;;27.35;11.90;;;12.10;54.90;;;;;;6274553;28;20474;-70
2022/01/31 12:14:25;;;;;;;35.85;11.43;;;12.10;54.80;;;;;;6283818;28;20020;-71
2022/01/31 12:24:52;;;;;;;34.17;10.50;;;11.90;54.90;;;;;;6236843;28;20034;-69
2022/01/31 12:27:54;;;;;;;25.88;9.85;;;11.80;55.00;;;;;;6236781;28;20599;-71
2022/01/31 12:30:55;;;;;;;25.60;10.85;;;11.70;55.00;;;;;;6239370;28;20524;-70
2022/01/31 12:33:57;;;;;;;33.35;11.95;;;11.70;55.10;;;;;;6223748;28;20076;-70
2022/01/31 12:37:19;;;;;;;27.88;10.25;;;11.70;55.20;;;;;;6223606;28;20041;-70
2022/01/31 12:40:29;;;;;;;31.50;11.32;;;11.70;55.20;;;;;;6222821;28;20033;-70
2022/01/31 12:46:50;;;;;;;31.17;10.45;;;11.70;55.30;;;;;;6233059;28;20104;-71
2022/01/31 12:50:24;;;;;;;27.40;10.55;;;11.70;55.40;;;;;;6231915;28;20694;-71
2022/01/31 12:53:27;;;;;;;25.65;10.20;;;11.70;55.50;;;;;;6223096;28;20359;-71
2022/01/31 12:56:30;;;;;;;25.83;10.38;;;11.70;55.50;;;;;;6269135;28;20372;-70
2022/01/31 12:59:31;;;;;;;29.50;10.73;;;11.60;55.50;;;;;;6277719;28;20025;-70
2022/01/31 13:02:32;;;;;;;20.55;9.00;;;11.70;55.60;;;;;;6275226;28;20033;-70
2022/01/31 13:05:36;;;;;;;14.43;6.60;;;11.70;55.60;;;;;;6257063;28;20039;-70
2022/01/31 13:08:40;;;;;;;9.95;3.00;;;11.70;55.60;;;;;;6245037;28;20029;-70
2022/01/31 13:11:44;;;;;;;9.20;1.88;;;11.60;55.70;;;;;;6269212;28;20025;-70
2022/01/31 13:14:49;;;;;;;3.63;1.20;;;11.50;56.20;;;;;;6254148;28;20992;-70
2022/01/31 13:17:51;;;;;;;5.13;2.45;;;11.40;56.80;;;;;;6269762;28;20055;-70
2022/01/31 13:20:52;;;;;;;16.67;5.45;;;11.30;57.30;;;;;;6267683;28;20021;-70
2022/01/31 13:23:57;;;;;;;20.63;6.50;;;11.20;57.60;;;;;;6267395;28;20456;-70
2022/01/31 13:27:00;;;;;;;15.20;6.15;;;11.20;57.60;;;;;;6263479;28;20033;-72
2022/01/31 13:30:02;;;;;;;11.02;5.30;;;11.20;57.70;;;;;;6252825;28;20040;-70
2022/01/31 13:33:06;;;;;;;14.63;4.75;;;11.30;57.60;;;;;;6268095;28;20063;-70
2022/01/31 13:36:07;;;;;;;19.52;6.43;;;11.30;57.50;;;;;;6257609;28;20040;-71
2022/01/31 13:39:20;;;;;;;22.42;9.00;;;11.40;57.20;;;;;;6270116;28;20036;-72
2022/01/31 13:42:24;;;;;;;27.55;10.68;;;11.40;57.00;;;;;;6270245;28;20085;-69
2022/01/31 13:45:33;;;;;;;37.50;12.95;;;11.60;57.10;;;;;;6258722;28;20111;-70
2022/01/31 13:51:55;;;;;;;22.33;9.38;;;11.60;57.10;;;;;;6252890;28;20028;-70
2022/01/31 13:54:56;;;;;;;28.85;10.13;;;11.70;57.00;;;;;;6260108;28;20036;-70
2022/01/31 13:57:58;;;;;;;44.03;11.85;;;11.60;56.90;;;;;;6239434;28;20060;-70
2022/01/31 14:01:00;;;;;;;26.10;10.05;;;11.50;57.00;;;;;;6258240;28;20074;-70
2022/01/31 14:04:02;;;;;;;24.95;10.38;;;11.50;57.00;;;;;;6271596;28;20033;-70
2022/01/31 14:07:04;;;;;;;30.00;10.93;;;11.50;57.10;;;;;;6270273;28;20021;-70
2022/01/31 14:10:23;;;;;;;26.65;11.48;;;11.40;57.10;;;;;;6266776;28;20077;-70
2022/01/31 14:13:25;;;;;;;29.50;10.70;;;11.40;57.20;;;;;;6263444;28;20020;-71
2022/01/31 14:16:29;;;;;;;26.77;10.90;;;11.40;57.30;;;;;;6257335;28;20074;-70
2022/01/31 14:19:30;;;;;;;22.08;9.73;;;11.40;57.30;;;;;;6266915;28;20021;-71
2022/01/31 14:22:30;;;;;;;29.88;9.85;;;11.40;57.40;;;;;;6268385;28;20071;-70
2022/01/31 14:25:40;;;;;;;26.85;9.70;;;11.30;57.30;;;;;;6272745;28;20047;-70
2022/01/31 14:28:44;;;;;;;27.45;10.00;;;11.30;57.30;;;;;;6261209;28;20511;-70
2022/01/31 14:31:49;;;;;;;29.05;10.93;;;11.20;57.30;;;;;;6235910;28;20343;-70
2022/01/31 14:34:57;;;;;;;24.70;9.98;;;11.20;57.40;;;;;;6252263;28;20373;-71
2022/01/31 14:37:58;;;;;;;;;;;11.20;57.60;;;;;;6272601;28;20032;-69
2022/01/31 14:47:27;;;;;;;16.80;8.10;;;11.10;58.50;;;;;;6272574;28;20131;-70
2022/01/31 14:50:38;;;;;;;3.28;2.08;;;11.00;58.00;;;;;;6258618;28;20025;-70
2022/01/31 14:53:39;;;;;;;6.47;1.85;;;11.00;58.60;;;;;;6268640;28;20028;-70
2022/01/31 14:56:41;;;;;;;9.70;3.88;;;10.90;58.20;;;;;;6249438;28;20056;-72
2022/01/31 14:59:42;;;;;;;22.42;8.93;;;10.90;58.30;;;;;;6271187;28;20025;-70
2022/01/31 15:02:44;;;;;;;22.48;6.57;;;10.90;58.40;;;;;;6255517;28;20138;-71
2022/01/31 15:05:45;;;;;;;4.60;2.40;;;10.90;58.60;;;;;;6273362;28;20508;-70
2022/01/31 15:08:46;;;;;;;4.15;1.98;;;10.80;58.70;;;;;;6249643;28;20120;-70
2022/01/31 15:11:47;;;;;;;9.93;2.50;;;10.70;59.20;;;;;;6266446;28;20033;-70
2022/01/31 15:14:48;;;;;;;8.63;3.10;;;10.50;60.00;;;;;;6255994;28;20029;-71
2022/01/31 15:17:50;;;;;;;3.50;2.67;;;10.30;61.30;;;;;;6261675;28;20132;-69
2022/01/31 15:20:51;;;;;;;4.95;2.50;;;10.10;62.30;;;;;;6250331;28;20029;-70
2022/01/31 15:23:54;;;;;;;6.53;2.60;;;10.10;63.00;;;;;;6253035;28;20309;-70
2022/01/31 15:26:54;;;;;;;7.68;2.80;;;10.00;63.30;;;;;;6264316;28;20017;-70
2022/01/31 15:29:55;;;;;;;7.15;2.67;;;10.00;63.20;;;;;;6239020;28;20468;-71
2022/01/31 15:32:56;;;;;;;6.47;1.98;;;10.00;63.30;;;;;;6276077;28;20028;-70
2022/01/31 15:35:58;;;;;;;7.78;3.00;;;10.10;63.40;;;;;;6253771;28;20170;-71
2022/01/31 15:39:00;;;;;;;11.10;2.17;;;10.20;63.00;;;;;;6273702;28;20100;-71
2022/01/31 15:42:03;;;;;;;6.93;2.78;;;10.30;62.50;;;;;;6262278;28;20237;-71
2022/01/31 15:45:05;;;;;;;5.03;2.35;;;10.30;62.10;;;;;;6269324;28;20452;-72
2022/01/31 15:48:06;;;;;;;5.80;1.98;;;10.40;61.60;;;;;;6257564;28;20167;-70
2022/01/31 15:51:07;;;;;;;7.25;2.60;;;10.40;61.10;;;;;;6254243;28;20029;-71
2022/01/31 15:54:08;;;;;;;6.03;1.95;;;10.50;60.60;;;;;;6255346;28;20039;-73
2022/01/31 15:57:10;;;;;;;5.50;1.92;;;10.60;59.80;;;;;;6244448;28;20032;-71
2022/01/31 16:00:15;;;;;;;8.40;1.95;;;10.60;59.10;;;;;;6272449;28;20040;-70
2022/01/31 16:03:19;;;;;;;3.60;1.50;;;10.60;58.70;;;;;;6260137;28;20163;-71
2022/01/31 16:06:20;;;;;;;7.25;1.75;;;10.60;58.70;;;;;;6281611;28;20041;-70
2022/01/31 16:09:21;;;;;;;8.77;1.30;;;10.60;58.80;;;;;;6283518;28;20022;-71
2022/01/31 16:12:23;;;;;;;1.52;1.02;;;10.50;59.10;;;;;;6275895;28;20029;-70
2022/01/31 16:15:24;;;;;;;1.67;1.10;;;10.40;59.30;;;;;;6273801;28;20024;-71
2022/01/31 16:18:24;;;;;;;2.90;0.82;;;10.10;59.60;;;;;;6274548;28;20120;-70
2022/01/31 16:21:25;;;;;;;2.75;0.70;;;9.90;60.20;;;;;;6263714;28;20098;-71
2022/01/31 16:24:26;;;;;;;1.33;0.82;;;9.70;61.00;;;;;;6272584;28;20091;-73
2022/01/31 16:27:30;;;;;;;2.25;0.70;;;9.50;61.40;;;;;;6273303;28;20046;-72
2022/01/31 16:30:33;;;;;;;2.30;0.88;;;9.40;61.90;;;;;;6272197;28;20029;-71